Time;durP1;ratioP1;P1;durP2;ratioP2;P2;SDS_P1;SDS_P2;PMS_P1;PMS_P2;Temp;Humidity;BMP_temperature;BMP_pressure;BME280_temperature;BME280_humidity;BME280_pressure;Samples;Min_cycle;Max_cycle;Signal;HPM_P1;HPM_P2
2023/04/28 00:01:13;;;;;;;2.78;2.35;;;;;;;6.06;55.02;62626.81;5018462;28;20380;-78
2023/04/28 00:03:40;;;;;;;6.10;2.50;;;;;;;6.13;54.50;62628.44;5016514;28;20229;-78
2023/04/28 00:06:07;;;;;;;5.28;2.22;;;;;;;6.06;54.69;62626.31;5029275;28;20201;-78
2023/04/28 00:08:35;;;;;;;2.95;2.70;;;;;;;6.07;54.47;62622.78;5024400;28;20239;-77
2023/04/28 00:11:03;;;;;;;2.72;2.33;;;;;;;6.09;54.71;62624.34;5013098;28;20200;-79
2023/04/28 00:13:30;;;;;;;4.20;2.60;;;;;;;6.01;54.63;62616.59;5021891;28;20293;-78
2023/04/28 00:15:58;;;;;;;5.05;2.47;;;;;;;6.06;54.73;62624.28;5025687;28;20210;-79
2023/04/28 00:18:26;;;;;;;5.43;2.92;;;;;;;6.00;55.30;62615.56;5028432;28;20241;-80
2023/04/28 00:20:53;;;;;;;3.53;2.55;;;;;;;6.02;54.97;62622.69;5013609;28;20240;-80
2023/04/28 00:23:21;;;;;;;4.10;2.50;;;;;;;5.96;55.18;62610.91;5020615;28;20243;-80
2023/04/28 00:25:56;;;;;;;2.80;2.47;;;;;;;5.90;55.29;62607.78;5012002;28;20199;-78
2023/04/28 00:28:23;;;;;;;3.85;2.80;;;;;;;5.86;55.48;62603.66;5010128;28;20222;-78
2023/04/28 00:30:50;;;;;;;2.47;2.28;;;;;;;5.81;55.54;62599.03;5008707;28;20538;-78
2023/04/28 00:33:17;;;;;;;2.03;1.80;;;;;;;5.73;55.86;62590.75;5019302;28;20230;-79
2023/04/28 00:35:44;;;;;;;4.03;2.80;;;;;;;5.69;55.71;62583.59;5018002;28;20202;-79
2023/04/28 00:38:10;;;;;;;2.70;2.50;;;;;;;5.65;55.87;62582.53;5008934;28;20257;-79
2023/04/28 00:40:39;;;;;;;2.30;2.15;;;;;;;5.63;55.77;62577.41;5009067;28;20210;-77
2023/04/28 00:43:09;;;;;;;6.00;3.15;;;;;;;5.61;55.99;62580.91;5030347;28;20219;-79
2023/04/28 00:45:36;;;;;;;3.35;3.05;;;;;;;5.58;56.08;62574.78;5009731;28;20255;-78
2023/04/28 00:48:03;;;;;;;2.67;2.25;;;;;;;5.51;55.86;62568.09;5019328;28;20224;-78
2023/04/28 00:50:30;;;;;;;2.70;2.38;;;;;;;5.53;56.29;62567.63;5028393;28;20191;-79
2023/04/28 00:52:57;;;;;;;5.82;3.00;;;;;;;5.43;56.67;62557.34;5021393;28;20555;-79
2023/04/28 00:55:26;;;;;;;3.35;3.10;;;;;;;5.37;56.70;62551.16;5009065;28;20223;-77
2023/04/28 00:57:56;;;;;;;3.30;3.00;;;;;;;5.34;56.98;62552.59;5019049;28;20258;-79
2023/04/28 01:00:25;;;;;;;3.28;2.53;;;;;;;5.21;57.38;62542.22;5008608;28;20192;-79
2023/04/28 01:02:52;;;;;;;6.47;2.83;;;;;;;5.24;57.54;62539.75;5009403;28;20218;-79
2023/04/28 01:05:19;;;;;;;3.38;3.08;;;;;;;5.21;57.50;62537.19;5012843;28;20202;-79
2023/04/28 01:07:47;;;;;;;4.18;2.38;;;;;;;5.19;57.47;62529.56;5027175;28;20273;-79
2023/04/28 01:10:14;;;;;;;2.50;2.35;;;;;;;5.17;57.27;62533.06;5028452;28;20270;-78
2023/04/28 01:12:41;;;;;;;2.30;2.13;;;;;;;5.17;57.19;62532.56;5032619;28;20274;-79
2023/04/28 01:15:14;;;;;;;4.13;2.83;;;;;;;5.11;57.36;62524.38;5020831;28;20527;-79
2023/04/28 01:17:43;;;;;;;5.43;2.53;;;;;;;5.10;57.03;62525.88;5008083;28;20226;-78
2023/04/28 01:20:12;;;;;;;3.92;2.97;;;;;;;5.10;57.21;62520.81;5020971;28;20225;-79
2023/04/28 01:22:39;;;;;;;3.22;2.25;;;;;;;5.09;57.15;62519.78;5026970;28;20248;-78
2023/04/28 01:25:08;;;;;;;3.35;2.20;;;;;;;5.04;56.75;62519.19;5015311;28;20233;-79
2023/04/28 01:27:35;;;;;;;2.45;2.25;;;;;;;5.06;56.71;62519.22;5007693;28;20616;-77
2023/04/28 01:30:03;;;;;;;3.35;2.17;;;;;;;5.03;56.91;62513.59;5008673;28;20207;-78
2023/04/28 01:32:30;;;;;;;5.97;2.53;;;;;;;5.07;56.69;62525.31;5011950;28;20536;-77
2023/04/28 01:34:57;;;;;;;2.70;2.50;;;;;;;5.07;56.58;62522.78;5010909;28;20230;-80
2023/04/28 01:37:24;;;;;;;3.58;2.65;;;;;;;5.04;56.66;62516.66;5008835;28;20227;-78
2023/04/28 01:39:51;;;;;;;2.40;2.20;;;;;;;5.04;56.64;62522.19;5008392;28;20504;-78
2023/04/28 01:42:19;;;;;;;3.70;1.98;;;;;;;5.03;56.81;62518.13;5011619;28;20266;-78
2023/04/28 01:44:47;;;;;;;3.42;2.58;;;;;;;4.99;56.79;62519.56;5007086;28;20565;-78
2023/04/28 01:47:14;;;;;;;2.80;2.60;;;;;;;4.95;56.99;62507.38;5011539;28;20208;-80
2023/04/28 01:49:41;;;;;;;3.83;2.55;;;;;;;4.90;56.88;62502.75;5028830;28;20202;-79
2023/04/28 01:52:12;;;;;;;2.85;2.65;;;;;;;4.96;56.82;62511.44;5027364;28;20226;-80
2023/04/28 01:54:39;;;;;;;3.53;2.38;;;;;;;4.95;57.02;62509.91;5007662;28;20230;-80
2023/04/28 01:57:07;;;;;;;2.70;2.33;;;;;;;4.88;57.35;62500.69;5009295;28;20226;-80
2023/04/28 01:59:36;;;;;;;3.45;2.42;;;;;;;4.87;57.32;62504.69;5006672;28;20206;-78
2023/04/28 02:02:04;;;;;;;3.85;2.53;;;;;;;4.84;57.49;62494.03;5021404;28;20223;-79
2023/04/28 02:04:31;;;;;;;3.83;2.25;;;;;;;4.81;58.36;62492.97;5028501;28;20198;-80
2023/04/28 02:06:58;;;;;;;2.70;2.28;;;;;;;4.77;58.85;62489.34;5027398;28;20398;-78
2023/04/28 02:09:25;;;;;;;2.90;2.70;;;;;;;4.79;59.23;62496.47;5025935;28;20202;-78
2023/04/28 02:11:52;;;;;;;3.22;2.80;;;;;;;4.76;59.23;62488.34;5027071;28;20214;-78
2023/04/28 02:14:22;;;;;;;3.15;2.83;;;;;;;4.70;59.56;62484.69;5022683;28;20480;-78
2023/04/28 02:16:50;;;;;;;5.38;2.53;;;;;;;4.80;59.35;62494.47;5027837;28;20222;-77
2023/04/28 02:19:18;;;;;;;2.88;2.67;;;;;;;4.78;59.16;62492.41;5025731;28;20412;-78
2023/04/28 02:21:45;;;;;;;2.60;2.17;;;;;;;4.72;59.62;62484.75;5028378;28;20221;-78
2023/04/28 02:24:12;;;;;;;4.15;2.60;;;;;;;4.66;59.10;62478.56;5007743;28;20199;-78
2023/04/28 02:26:39;;;;;;;3.30;2.83;;;;;;;4.69;59.29;62486.19;5026201;28;20195;-79
2023/04/28 02:29:06;;;;;;;5.55;2.13;;;;;;;4.70;59.35;62479.63;5026702;28;20218;-79
2023/04/28 02:31:34;;;;;;;4.28;2.38;;;;;;;4.69;59.04;62481.13;5015585;28;20195;-78
2023/04/28 02:34:02;;;;;;;2.90;2.70;;;;;;;4.68;59.15;62485.66;5022743;28;20234;-78
2023/04/28 02:36:31;;;;;;;6.38;2.63;;;;;;;4.70;59.33;62485.19;5027583;28;20208;-79
2023/04/28 02:38:58;;;;;;;2.67;2.47;;;;;;;4.66;59.88;62480.56;5025614;28;20273;-78
2023/04/28 02:41:25;;;;;;;6.63;2.85;;;;;;;4.64;59.90;62481.03;5015018;28;20196;-78
2023/04/28 02:43:52;;;;;;;5.95;2.55;;;;;;;4.65;59.86;62479.53;5011109;28;20276;-77
2023/04/28 02:46:19;;;;;;;2.88;1.80;;;;;;;4.60;59.67;62474.38;5020452;28;20203;-77
2023/04/28 02:48:46;;;;;;;2.75;2.55;;;;;;;4.68;59.55;62483.13;5017129;28;20219;-78
2023/04/28 02:51:14;;;;;;;2.55;2.30;;;;;;;4.63;59.61;62470.44;5011954;28;20198;-79
2023/04/28 02:53:41;;;;;;;3.70;2.83;;;;;;;4.65;59.54;62477.00;5025038;28;20219;-77
2023/04/28 02:56:08;;;;;;;2.63;2.42;;;;;;;4.64;59.54;62470.94;5014587;28;20226;-78
2023/04/28 02:58:36;;;;;;;5.75;2.47;;;;;;;4.64;59.58;62481.03;5012265;28;20238;-80
2023/04/28 03:01:03;;;;;;;8.27;2.03;;;;;;;4.55;59.62;62469.25;5016603;28;20203;-78
2023/04/28 03:03:30;;;;;;;3.50;2.45;;;;;;;4.61;59.33;62475.94;5025248;28;20238;-78
2023/04/28 03:05:57;;;;;;;2.88;2.65;;;;;;;4.64;59.43;62476.00;5013090;28;20199;-78
2023/04/28 03:08:26;;;;;;;3.22;2.80;;;;;;;4.62;58.85;62471.41;5013492;28;20265;-78
2023/04/28 03:10:53;;;;;;;2.33;2.13;;;;;;;4.61;58.48;62475.41;5027718;28;20199;-78
2023/04/28 03:13:20;;;;;;;3.50;3.20;;;;;;;4.60;58.68;62472.38;5030885;28;20297;-78
2023/04/28 03:15:49;;;;;;;3.15;2.80;;;;;;;4.56;58.69;62470.78;5030464;28;20230;-79
2023/04/28 03:18:17;;;;;;;4.70;2.90;;;;;;;4.52;58.64;62464.13;5010459;28;20431;-78
2023/04/28 03:20:44;;;;;;;3.80;2.70;;;;;;;4.60;58.29;62471.88;5011015;28;20213;-80
2023/04/28 03:23:12;;;;;;;3.33;3.03;;;;;;;4.58;58.19;62472.84;5008863;28;20227;-78
2023/04/28 03:25:40;;;;;;;2.75;2.55;;;;;;;4.59;58.00;62473.88;5009666;28;20199;-78
2023/04/28 03:28:09;;;;;;;2.50;2.38;;;;;;;4.55;58.29;62466.72;5015121;28;20219;-78
2023/04/28 03:30:36;;;;;;;3.45;2.53;;;;;;;4.51;58.17;62460.59;5012857;28;20198;-79
2023/04/28 03:33:03;;;;;;;3.42;2.33;;;;;;;4.62;58.24;62478.97;5012556;28;20233;-79
2023/04/28 03:35:31;;;;;;;2.72;2.53;;;;;;;4.62;57.99;62474.44;5012920;28;20227;-78
2023/04/28 03:37:58;;;;;;;4.05;2.78;;;;;;;4.61;57.77;62470.38;5012454;28;20230;-78
2023/04/28 03:40:25;;;;;;;3.20;2.90;;;;;;;4.68;57.26;62485.66;5014045;28;20208;-77
2023/04/28 03:42:53;;;;;;;4.15;2.60;;;;;;;4.72;57.39;62489.78;5021417;28;20222;-77
2023/04/28 03:45:20;;;;;;;3.40;2.53;;;;;;;4.71;57.23;62485.72;5027785;28;20215;-77
2023/04/28 03:47:47;;;;;;;4.15;2.10;;;;;;;4.78;57.17;62487.34;5017645;28;20570;-81
2023/04/28 03:50:15;;;;;;;5.22;2.58;;;;;;;4.82;56.88;62496.50;5012052;28;20453;-79
2023/04/28 03:52:42;;;;;;;3.35;2.15;;;;;;;4.87;57.01;62502.19;5010391;28;20246;-78
2023/04/28 03:55:11;;;;;;;2.63;2.17;;;;;;;4.79;56.52;62496.47;5011079;28;20219;-80
2023/04/28 03:57:39;;;;;;;2.53;2.33;;;;;;;4.89;55.97;62501.72;5010135;28;20227;-79
2023/04/28 04:00:09;;;;;;;2.67;2.47;;;;;;;5.03;55.87;62518.13;5031192;28;20218;-78
2023/04/28 04:02:36;;;;;;;3.08;2.10;;;;;;;4.82;55.53;62491.47;5013149;28;20289;-78
2023/04/28 04:05:03;;;;;;;2.67;2.40;;;;;;;5.15;55.46;62535.53;5011892;28;20226;-78
2023/04/28 04:07:31;;;;;;;2.30;2.15;;;;;;;5.20;55.33;62533.13;5012246;28;20223;-77
2023/04/28 04:09:57;;;;;;;4.18;2.50;;;;;;;5.28;55.06;62543.91;5023395;28;20209;-77
2023/04/28 04:12:24;;;;;;;3.92;2.58;;;;;;;5.37;54.97;62551.16;5018177;28;20214;-79
2023/04/28 04:14:51;;;;;;;5.05;2.83;;;;;;;5.34;54.76;62550.59;5022532;28;20245;-76
2023/04/28 04:17:20;;;;;;;3.08;2.28;;;;;;;5.35;54.31;62554.13;5026717;28;20226;-77
2023/04/28 04:19:46;;;;;;;2.33;2.22;;;;;;;5.51;54.14;62568.09;5015368;28;20199;-78
2023/04/28 04:22:13;;;;;;;2.75;2.55;;;;;;;5.58;53.40;62575.31;5012178;28;20548;-79
2023/04/28 04:24:40;;;;;;;2.00;1.80;;;;;;;5.50;54.02;62567.06;5011585;28;20200;-76
2023/04/28 04:27:08;;;;;;;2.42;2.22;;;;;;;5.54;52.75;62568.66;5024929;28;20215;-79
2023/04/28 04:29:36;;;;;;;2.88;2.63;;;;;;;5.45;53.76;62561.91;5024112;28;20211;-80
2023/04/28 04:32:03;;;;;;;4.15;2.20;;;;;;;5.65;53.41;62582.00;5015357;28;20230;-76
2023/04/28 04:34:33;;;;;;;3.72;2.38;;;;;;;5.69;53.01;62584.09;5013542;28;20227;-78
2023/04/28 04:37:00;;;;;;;3.83;2.30;;;;;;;5.73;52.93;62590.25;5016827;28;20290;-78
2023/04/28 04:39:27;;;;;;;2.88;2.40;;;;;;;5.81;52.88;62595.97;5027618;28;20203;-78
2023/04/28 04:41:54;;;;;;;2.70;2.50;;;;;;;5.92;53.14;62611.88;5017338;28;20246;-80
2023/04/28 04:44:21;;;;;;;2.10;2.00;;;;;;;5.95;53.05;62614.94;5019890;28;20203;-79
2023/04/28 04:46:48;;;;;;;3.25;2.53;;;;;;;6.04;52.82;62624.72;5012934;28;20200;-78
2023/04/28 04:49:15;;;;;;;2.22;2.05;;;;;;;6.11;52.77;62628.94;5010649;28;20210;-79
2023/04/28 04:51:43;;;;;;;4.20;2.10;;;;;;;6.06;52.68;62623.78;5021381;28;20229;-76
2023/04/28 04:54:11;;;;;;;4.15;2.42;;;;;;;6.09;53.00;62627.34;5011623;28;20207;-77
2023/04/28 04:56:39;;;;;;;4.97;2.45;;;;;;;6.16;52.70;62634.56;5012073;28;20226;-81
2023/04/28 04:59:06;;;;;;;2.47;2.30;;;;;;;6.23;53.21;62644.31;5009695;28;20396;-77
2023/04/28 05:01:34;;;;;;;8.93;2.60;;;;;;;6.16;53.90;62631.56;5025146;28;20209;-78
2023/04/28 05:04:01;;;;;;;3.80;2.40;;;;;;;6.24;53.08;62640.31;5016104;28;20267;-77
2023/04/28 05:06:28;;;;;;;6.93;2.55;;;;;;;6.26;53.89;62639.31;5013836;28;20354;-78
2023/04/28 05:08:58;;;;;;;2.30;2.15;;;;;;;6.32;53.72;62653.59;5011487;28;20218;-78
2023/04/28 05:11:27;;;;;;;5.15;2.30;;;;;;;6.26;53.77;62639.31;5014352;28;20224;-77
2023/04/28 05:13:54;;;;;;;2.60;2.00;;;;;;;6.26;53.89;62644.91;5009240;28;20203;-78
2023/04/28 05:16:22;;;;;;;4.28;2.22;;;;;;;6.36;53.51;62657.75;5011009;28;20237;-77
2023/04/28 05:18:48;;;;;;;2.97;2.45;;;;;;;6.34;54.02;62652.63;5012937;28;20219;-78
2023/04/28 05:21:15;;;;;;;3.85;2.20;;;;;;;6.51;53.88;62672.69;5009528;28;20378;-79
2023/04/28 05:23:42;;;;;;;5.43;2.88;;;;;;;6.53;54.02;62672.22;5011747;28;20246;-77
2023/04/28 05:26:12;;;;;;;2.55;2.13;;;;;;;6.50;53.83;62666.59;5009951;28;20208;-77
2023/04/28 05:28:43;;;;;;;2.72;2.17;;;;;;;6.37;54.22;62658.75;5025349;28;20245;-79
2023/04/28 05:31:10;;;;;;;6.57;2.55;;;;;;;6.56;53.85;62673.28;5028218;28;20195;-78
2023/04/28 05:33:37;;;;;;;3.60;2.88;;;;;;;6.45;54.75;62661.97;5023849;28;20249;-75
2023/04/28 05:36:04;;;;;;;2.95;2.58;;;;;;;6.41;54.06;62657.84;5031177;28;20292;-77
2023/04/28 05:38:32;;;;;;;3.65;2.83;;;;;;;6.52;54.23;62669.16;5026490;28;20276;-80
2023/04/28 05:40:59;;;;;;;3.40;1.77;;;;;;;6.07;54.57;62622.78;5023433;28;20223;-76
2023/04/28 05:43:27;;;;;;;6.40;2.50;;;;;;;6.22;55.42;62637.72;5014648;28;20262;-75
2023/04/28 05:45:55;;;;;;;2.38;2.17;;;;;;;6.31;55.17;62644.47;5006662;28;20199;-77
2023/04/28 05:48:26;;;;;;;3.13;2.92;;;;;;;6.33;54.68;62649.06;5014082;28;20222;-79
2023/04/28 05:50:53;;;;;;;6.38;2.20;;;;;;;6.58;52.66;62677.38;5017915;28;20488;-78
2023/04/28 05:53:21;;;;;;;2.92;2.63;;;;;;;6.59;52.56;62675.88;5019394;28;20237;-78
2023/04/28 05:55:48;;;;;;;2.45;2.25;;;;;;;6.73;52.29;62693.34;5018988;28;20223;-78
2023/04/28 05:58:15;;;;;;;3.85;2.55;;;;;;;6.77;53.54;62696.97;5011152;28;20227;-78
2023/04/28 06:00:43;;;;;;;3.22;2.75;;;;;;;6.81;51.89;62703.63;5012881;28;20406;-78
2023/04/28 06:03:13;;;;;;;3.08;2.28;;;;;;;6.62;52.67;62684.56;5021995;28;20215;-76
2023/04/28 06:05:40;;;;;;;3.58;2.83;;;;;;;6.50;53.68;62669.66;5017691;28;20207;-79
2023/04/28 06:08:07;;;;;;;3.53;2.58;;;;;;;6.65;53.29;62682.06;5010597;28;20215;-76
2023/04/28 06:10:34;;;;;;;2.00;1.90;;;;;;;6.75;52.82;62690.38;5011693;28;20202;-78
2023/04/28 06:13:03;;;;;;;2.67;2.35;;;;;;;6.95;51.60;62716.03;5028348;28;20222;-77
2023/04/28 06:15:30;;;;;;;2.80;2.60;;;;;;;6.91;52.06;62714.47;5020493;28;20230;-76
2023/04/28 06:17:59;;;;;;;1.88;1.77;;;;;;;7.00;52.00;62720.69;5021256;28;20260;-76
2023/04/28 06:20:26;;;;;;;3.30;2.20;;;;;;;6.87;51.77;62702.22;5022988;28;20305;-76
2023/04/28 06:22:53;;;;;;;4.95;2.35;;;;;;;7.07;53.29;62728.44;5018883;28;20534;-76
2023/04/28 06:25:20;;;;;;;3.60;2.47;;;;;;;7.19;52.24;62742.31;5021349;28;20242;-79
2023/04/28 06:27:47;;;;;;;2.88;1.90;;;;;;;7.02;51.78;62720.75;5025182;28;20565;-77
2023/04/28 06:30:18;;;;;;;2.20;2.03;;;;;;;6.95;51.61;62713.50;5021424;28;20251;-75
2023/04/28 06:32:46;;;;;;;1.48;1.42;;;;;;;6.69;51.77;62689.25;5014861;28;20215;-77
2023/04/28 06:35:14;;;;;;;2.53;2.35;;;;;;;6.83;53.13;62700.63;5013808;28;20231;-77
2023/04/28 06:37:41;;;;;;;4.72;2.58;;;;;;;7.14;52.05;62737.16;5016881;28;20219;-76
2023/04/28 06:40:09;;;;;;;4.18;1.92;;;;;;;7.31;50.30;62750.16;5019642;28;20203;-78
2023/04/28 06:42:37;;;;;;;2.80;2.38;;;;;;;7.22;50.52;62745.94;5015617;28;20215;-76
2023/04/28 06:45:04;;;;;;;2.22;2.13;;;;;;;7.15;51.43;62738.19;5014790;28;20203;-76
2023/04/28 06:47:32;;;;;;;2.45;2.35;;;;;;;7.30;49.80;62754.19;5015862;28;20590;-78
2023/04/28 06:50:00;;;;;;;2.80;2.60;;;;;;;7.55;50.17;62776.94;5029123;28;20199;-78
2023/04/28 06:52:29;;;;;;;2.55;1.60;;;;;;;7.47;50.13;62768.69;5021724;28;20226;-75
2023/04/28 06:54:56;;;;;;;5.65;2.58;;;;;;;7.35;51.71;62756.81;5009098;28;20199;-79
2023/04/28 06:57:23;;;;;;;3.75;2.60;;;;;;;7.45;51.38;62771.69;5011276;28;20229;-78
2023/04/28 06:59:50;;;;;;;2.83;2.40;;;;;;;7.72;49.65;62791.94;5012834;28;20372;-77
2023/04/28 07:02:17;;;;;;;7.45;2.60;;;;;;;7.91;50.05;62816.63;5020769;28;20226;-78
2023/04/28 07:04:45;;;;;;;3.90;2.42;;;;;;;8.13;49.18;62837.34;5019239;28;20195;-79
2023/04/28 07:07:12;;;;;;;6.38;2.40;;;;;;;8.31;49.17;62852.38;5019143;28;20233;-78
2023/04/28 07:09:40;;;;;;;3.45;2.45;;;;;;;8.52;47.89;62874.06;5018582;28;20199;-78
2023/04/28 07:12:09;;;;;;;3.35;2.72;;;;;;;8.54;48.21;62879.19;5027051;28;20234;-76
2023/04/28 07:14:37;;;;;;;3.22;2.58;;;;;;;8.48;48.44;62869.94;5019988;28;20198;-78
2023/04/28 07:17:04;;;;;;;1.85;1.75;;;;;;;8.40;47.87;62864.22;5013196;28;20237;-75
2023/04/28 07:19:31;;;;;;;4.47;2.35;;;;;;;8.43;49.19;62869.84;5016968;28;20198;-77
2023/04/28 07:21:58;;;;;;;5.43;2.50;;;;;;;8.50;49.51;62875.06;5020051;28;20246;-78
2023/04/28 07:24:26;;;;;;;2.95;2.35;;;;;;;8.23;49.23;62849.69;5011436;28;20211;-78
2023/04/28 07:26:54;;;;;;;2.95;2.70;;;;;;;8.12;49.25;62833.78;5022144;28;20254;-77
2023/04/28 07:29:21;;;;;;;2.33;2.20;;;;;;;7.98;49.04;62816.78;5014262;28;20266;-78
2023/04/28 07:31:49;;;;;;;2.65;2.35;;;;;;;8.02;48.99;62817.84;5019662;28;20203;-77
2023/04/28 07:34:16;;;;;;;2.17;2.03;;;;;;;8.10;49.87;62831.72;5015861;28;20198;-76
2023/04/28 07:36:43;;;;;;;4.47;2.92;;;;;;;8.26;49.69;62850.28;5008920;28;20223;-77
2023/04/28 07:39:10;;;;;;;2.47;2.22;;;;;;;8.19;49.30;62841.00;5007696;28;20203;-77
2023/04/28 07:41:38;;;;;;;8.50;2.80;;;;;;;8.52;49.08;62877.13;5009208;28;20512;-76
2023/04/28 07:44:07;;;;;;;3.15;2.38;;;;;;;8.84;45.45;62912.72;5011489;28;20203;-78
2023/04/28 07:46:35;;;;;;;4.43;2.15;;;;;;;9.11;46.33;62940.13;5009645;28;20262;-79
2023/04/28 07:49:03;;;;;;;2.75;2.40;;;;;;;9.33;45.02;62955.25;5010577;28;20202;-79
2023/04/28 07:51:31;;;;;;;1.75;1.65;;;;;;;8.80;45.66;62905.53;5011665;28;20199;-80
2023/04/28 07:53:58;;;;;;;3.15;2.20;;;;;;;9.12;45.11;62938.59;5012606;28;20203;-76
2023/04/28 07:56:26;;;;;;;2.30;2.20;;;;;;;9.26;44.41;62948.53;5010142;28;20235;-80
2023/04/28 07:58:54;;;;;;;2.58;2.40;;;;;;;9.48;45.11;62975.81;5010951;28;20560;-80
2023/04/28 08:01:22;;;;;;;3.28;2.75;;;;;;;9.33;46.08;62958.31;5011213;28;20226;-79
2023/04/28 08:03:49;;;;;;;3.72;2.60;;;;;;;9.19;45.79;62943.84;5008745;28;20245;-76
2023/04/28 08:06:19;;;;;;;3.97;2.50;;;;;;;9.16;44.81;62945.28;5008206;28;20222;-76
2023/04/28 08:08:46;;;;;;;3.35;2.50;;;;;;;9.21;44.98;62947.91;5010239;28;20211;-78
2023/04/28 08:11:13;;;;;;;2.92;2.72;;;;;;;9.15;46.38;62939.69;5008596;28;20214;-79
2023/04/28 08:13:40;;;;;;;4.80;2.95;;;;;;;9.41;46.48;62966.03;5010904;28;20219;-78
2023/04/28 08:16:07;;;;;;;5.05;2.47;;;;;;;9.53;45.27;62978.44;5009558;28;20257;-79
2023/04/28 08:18:37;;;;;;;4.63;2.50;;;;;;;9.77;44.30;63005.81;5009126;28;20230;-78
2023/04/28 08:21:04;;;;;;;3.95;2.58;;;;;;;9.98;43.52;63021.94;5009892;28;20227;-78
2023/04/28 08:23:31;;;;;;;2.30;2.20;;;;;;;9.90;44.66;63021.81;5011147;28;20223;-79
2023/04/28 08:25:59;;;;;;;3.03;2.80;;;;;;;10.23;44.28;63052.91;5010517;28;20429;-77
2023/04/28 08:28:27;;;;;;;2.25;2.15;;;;;;;10.48;44.64;63076.22;5011697;28;20230;-79
2023/04/28 08:30:55;;;;;;;6.68;2.60;;;;;;;10.29;42.62;63057.09;5009730;28;20219;-77
2023/04/28 08:33:23;;;;;;;3.67;2.40;;;;;;;10.19;42.87;63048.78;5009192;28;20219;-78
2023/04/28 08:35:51;;;;;;;5.50;2.30;;;;;;;10.08;42.92;63037.91;5008062;28;20234;-77
2023/04/28 08:38:21;;;;;;;2.72;1.80;;;;;;;10.17;42.42;63047.22;5018146;28;20222;-80
2023/04/28 08:40:49;;;;;;;2.83;2.28;;;;;;;10.45;43.42;63071.09;5031602;28;20198;-80
2023/04/28 08:43:16;;;;;;;2.97;2.70;;;;;;;10.76;42.85;63107.25;5029871;28;20239;-81
2023/04/28 08:45:44;;;;;;;3.90;2.47;;;;;;;10.81;41.43;63112.41;5028683;28;20387;-78
2023/04/28 08:48:19;;;;;;;3.13;2.50;;;;;;;10.80;42.19;63109.38;5017730;28;20247;-78
2023/04/28 08:50:50;;;;;;;3.90;2.25;;;;;;;10.73;42.73;63101.59;5010691;28;20229;-78
2023/04/28 08:53:22;;;;;;;5.20;2.20;;;;;;;10.84;42.62;63116.03;5020218;28;20438;-76
2023/04/28 08:55:52;;;;;;;2.72;2.25;;;;;;;10.94;41.89;63126.38;5024648;28;20227;-78
2023/04/28 08:58:19;;;;;;;2.38;2.17;;;;;;;11.14;41.71;63141.50;5011727;28;20238;-79
2023/04/28 09:00:46;;;;;;;3.33;2.55;;;;;;;11.17;41.23;63149.69;5019256;28;20214;-80
2023/04/28 09:03:15;;;;;;;2.22;2.10;;;;;;;11.06;40.76;63136.25;5030939;28;20551;-77
2023/04/28 09:05:43;;;;;;;5.38;2.70;;;;;;;10.99;41.17;63129.00;5031257;28;20213;-79
2023/04/28 09:08:12;;;;;;;9.10;2.33;;;;;;;11.15;41.29;63145.06;5031163;28;20430;-79
2023/04/28 09:10:41;;;;;;;2.88;2.45;;;;;;;10.97;40.91;63129.50;5030974;28;20187;-77
2023/04/28 09:13:08;;;;;;;2.60;1.83;;;;;;;10.65;42.67;63098.41;5014544;28;20246;-77
2023/04/28 09:15:37;;;;;;;3.70;2.20;;;;;;;10.61;41.10;63091.72;5016001;28;20203;-79
2023/04/28 09:18:06;;;;;;;2.70;2.47;;;;;;;10.81;42.19;63112.94;5010521;28;20215;-77
2023/04/28 09:20:34;;;;;;;4.22;2.60;;;;;;;10.61;41.57;63089.16;5017046;28;20206;-76
2023/04/28 09:23:20;;;;;;;2.15;1.98;;;;;;;10.77;41.52;63108.78;5014070;28;20222;-78
2023/04/28 09:26:00;;;;;;;3.33;2.33;;;;;;;10.73;41.70;63102.13;5018130;28;20208;-77
2023/04/28 09:28:27;;;;;;;2.80;2.50;;;;;;;10.85;41.94;63124.72;5008856;28;20215;-79
2023/04/28 09:30:54;;;;;;;3.22;2.50;;;;;;;10.99;42.55;63134.09;5012473;28;20195;-79
2023/04/28 09:33:21;;;;;;;3.88;2.40;;;;;;;11.11;41.28;63146.03;5007305;28;20220;-77
2023/04/28 09:35:48;;;;;;;5.57;2.05;;;;;;;11.23;42.43;63156.41;5018779;28;20257;-77
2023/04/28 09:38:15;;;;;;;4.00;1.80;;;;;;;11.26;41.17;63156.47;5006371;28;20239;-79
2023/04/28 09:40:59;;;;;;;4.15;2.17;;;;;;;11.23;41.84;63150.81;5008092;28;20199;-81
2023/04/28 09:43:31;;;;;;;2.78;2.05;;;;;;;11.27;41.97;63162.59;5005925;28;20237;-78
2023/04/28 09:45:59;;;;;;;4.05;2.67;;;;;;;11.26;41.25;63159.53;5005957;28;20206;-77
2023/04/28 09:48:28;;;;;;;2.42;2.22;;;;;;;11.40;41.68;63173.50;5006820;28;20215;-77
2023/04/28 09:50:56;;;;;;;2.65;2.33;;;;;;;11.41;41.10;63174.53;5020491;28;20245;-76
2023/04/28 09:53:24;;;;;;;5.20;2.38;;;;;;;11.49;40.95;63188.44;5020878;28;20222;-77
2023/04/28 09:55:53;;;;;;;7.43;2.40;;;;;;;11.45;39.96;63176.66;5013666;28;20205;-79
2023/04/28 09:58:22;;;;;;;2.97;2.40;;;;;;;11.53;39.76;63186.97;5011906;28;20241;-78
2023/04/28 10:00:52;;;;;;;5.03;2.28;;;;;;;11.48;40.19;63182.31;5014753;28;20644;-76
2023/04/28 10:03:23;;;;;;;2.67;2.38;;;;;;;11.63;40.41;63199.91;5007701;28;20218;-76
2023/04/28 10:05:52;;;;;;;2.83;2.63;;;;;;;11.72;40.12;63208.72;5010276;28;20211;-79
2023/04/28 10:08:20;;;;;;;2.63;1.85;;;;;;;11.98;41.19;63233.63;5008692;28;20287;-78
2023/04/28 10:10:49;;;;;;;1.60;1.52;;;;;;;11.80;40.11;63217.00;5021124;28;20205;-77
2023/04/28 10:13:18;;;;;;;2.15;1.95;;;;;;;11.71;40.19;63203.09;5025852;28;20412;-78
2023/04/28 10:15:47;;;;;;;7.50;2.20;;;;;;;11.90;39.45;63227.88;5015307;28;20215;-77
2023/04/28 10:18:14;;;;;;;3.40;1.98;;;;;;;11.82;39.45;63213.97;5009998;28;20251;-78
2023/04/28 10:20:45;;;;;;;1.75;1.65;;;;;;;11.82;40.39;63214.47;5012728;28;20234;-77
2023/04/28 10:23:37;;;;;;;4.35;2.10;;;;;;;11.90;39.04;63224.81;5015737;28;20222;-79
2023/04/28 10:26:11;;;;;;;5.47;2.00;;;;;;;12.25;38.73;63258.53;5025091;28;20503;-77
2023/04/28 10:28:44;;;;;;;2.30;1.90;;;;;;;12.12;40.08;63250.16;5008874;28;20294;-78
2023/04/28 10:31:15;;;;;;;2.35;1.80;;;;;;;11.91;39.99;63228.91;5009787;28;20251;-77
2023/04/28 10:33:43;;;;;;;1.77;1.77;;;;;;;12.06;39.70;63243.94;5010975;28;20238;-79
2023/04/28 10:36:11;;;;;;;5.63;2.85;;;;;;;12.20;38.91;63253.88;5006078;28;20199;-75
2023/04/28 10:39:09;;;;;;;3.08;2.15;;;;;;;12.29;39.55;63268.31;5013872;28;20484;-76
2023/04/28 10:41:37;;;;;;;3.35;2.88;;;;;;;12.29;39.77;63265.75;5009445;28;20196;-75
2023/04/28 10:44:37;;;;;;;4.57;2.40;;;;;;;12.47;39.05;63284.41;5009080;28;20203;-75
2023/04/28 10:47:08;;;;;;;2.25;1.95;;;;;;;12.34;38.16;63270.41;5022859;28;20277;-74
2023/04/28 10:50:10;;;;;;;1.83;1.73;;;;;;;12.38;38.01;63274.56;5015573;28;20221;-75
2023/04/28 10:52:49;;;;;;;1.90;1.80;;;;;;;12.57;37.79;63294.78;5007032;28;20214;-77
2023/04/28 10:55:35;;;;;;;3.03;2.25;;;;;;;12.77;38.24;63318.06;5020293;28;20206;-80
2023/04/28 10:58:31;;;;;;;4.15;2.25;;;;;;;12.94;37.02;63330.09;5019270;28;20233;-77
2023/04/28 11:01:25;;;;;;;3.72;1.92;;;;;;;13.14;36.95;63352.88;5027123;28;20449;-80
2023/04/28 11:03:58;;;;;;;2.53;1.33;;;;;;;12.92;36.24;63324.94;5018304;28;20270;-80
2023/04/28 11:06:27;;;;;;;2.05;1.83;;;;;;;13.05;37.09;63340.97;5019423;28;20476;-79
2023/04/28 11:08:56;;;;;;;5.43;2.33;;;;;;;12.91;36.69;63332.06;5015636;28;20258;-78
2023/04/28 11:11:25;;;;;;;2.17;1.75;;;;;;;12.99;36.57;63337.81;5013250;28;20207;-77
2023/04/28 11:13:54;;;;;;;2.90;1.90;;;;;;;13.11;37.34;63352.31;5020714;28;20250;-78
2023/04/28 11:16:24;;;;;;;2.92;2.20;;;;;;;12.97;35.54;63332.66;5020558;28;20226;-77
2023/04/28 11:18:57;;;;;;;1.90;1.80;;;;;;;12.99;35.99;63334.75;5009454;28;20230;-79
2023/04/28 11:21:28;;;;;;;6.35;1.63;;;;;;;12.95;35.68;63336.22;5012743;28;20302;-77
2023/04/28 11:23:55;;;;;;;3.35;1.90;;;;;;;13.01;37.46;63339.38;5021075;28;20188;-79
2023/04/28 11:26:23;;;;;;;2.08;1.60;;;;;;;13.10;35.89;63351.78;5011430;28;20203;-77
2023/04/28 11:28:52;;;;;;;3.75;1.85;;;;;;;13.06;35.62;63342.03;5010407;28;20223;-81
2023/04/28 11:31:23;;;;;;;1.77;1.67;;;;;;;13.18;34.81;63360.09;5023189;28;20230;-80
2023/04/28 11:34:04;;;;;;;4.88;1.70;;;;;;;13.48;35.63;63386.09;5013055;28;20266;-80
2023/04/28 11:36:34;;;;;;;4.85;1.92;;;;;;;13.50;34.65;63393.31;5020411;28;20230;-78
2023/04/28 11:39:03;;;;;;;6.18;1.75;;;;;;;13.31;35.60;63367.94;5016373;28;20492;-76
2023/04/28 11:41:33;;;;;;;2.00;1.75;;;;;;;13.34;35.43;63376.19;5029806;28;20237;-77
2023/04/28 11:44:01;;;;;;;3.47;2.00;;;;;;;13.23;36.07;63357.09;5025990;28;20230;-78
2023/04/28 11:46:28;;;;;;;1.30;1.30;;;;;;;13.48;34.93;63391.22;5030999;28;20231;-81